Time;durP1;ratioP1;P1;durP2;ratioP2;P2;SDS_P1;SDS_P2;PMS_P1;PMS_P2;Temp;Humidity;BMP_temperature;BMP_pressure;BME280_temperature;BME280_humidity;BME280_pressure;Samples;Min_cycle;Max_cycle;Signal;HPM_P1;HPM_P2
2022/11/05 00:09:30;;;;;;;;;;;;;;;;;;5083679;28;19948;-81
2022/11/05 00:17:26;;;;;;;;;;;;;;;;;;5084474;28;19955;-81
2022/11/05 00:19:53;;;;;;;;;;;;;;;;;;5045911;28;19940;-81
2022/11/05 00:25:13;;;;;;;;;;;;;;;;;;5062332;28;20059;-81
2022/11/05 00:27:39;;;;;;;;;;;;;;;;;;5061670;28;19965;-82
2022/11/05 00:30:06;;;;;;;;;;;;;;;;;;5066937;28;19951;-81
2022/11/05 00:32:32;;;;;;;;;;;;;;;;;;5067830;28;19944;-81
2022/11/05 00:34:58;;;;;;;;;;;;;;;;;;5067962;28;19959;-80
2022/11/05 00:37:25;;;;;;;;;;;;;;;;;;5086321;28;19959;-83
2022/11/05 00:39:51;;;;;;;;;;;;;;;;;;5086156;28;19955;-84
2022/11/05 00:45:02;;;;;;;;;;;;;;;;;;5073777;28;19952;-83
2022/11/05 00:50:12;;;;;;;;;;;;;;;;;;5084711;28;19935;-84
2022/11/05 00:52:54;;;;;;;;;;;;;;;;;;5067628;28;19951;-84
2022/11/05 00:55:20;;;;;;;;;;;;;;;;;;5062916;28;20433;-83
2022/11/05 00:57:46;;;;;;;;;;;;;;;;;;5047124;28;19944;-83
2022/11/05 01:00:13;;;;;;;;;;;;;;;;;;5089630;28;19948;-82
2022/11/05 01:02:39;;;;;;;;;;;;;;;;;;5054062;28;19959;-83
2022/11/05 01:05:05;;;;;;;;;;;;;;;;;;5094567;28;19975;-81
2022/11/05 01:07:31;;;;;;;;;;;;;;;;;;5071488;28;20359;-82
2022/11/05 01:09:57;;;;;;;;;;;;;;;;;;5089937;28;20294;-81
2022/11/05 01:12:23;;;;;;;;;;;;;;;;;;5052333;28;19951;-80
2022/11/05 01:14:50;;;;;;;;;;;;;;;;;;5055906;28;19958;-81
2022/11/05 01:17:16;;;;;;;;;;;;;;;;;;5052865;28;19916;-82
2022/11/05 01:19:42;;;;;;;;;;;;;;;;;;5053786;28;19981;-82
2022/11/05 01:22:08;;;;;;;;;;;;;;;;;;5051029;28;19951;-82
2022/11/05 01:24:35;;;;;;;;;;;;;;;;;;5054053;28;19951;-83
2022/11/05 01:27:01;;;;;;;;;;;;;;;;;;5049792;28;19916;-82
2022/11/05 01:29:27;;;;;;;;;;;;;;;;;;5067934;28;19916;-83
2022/11/05 01:31:53;;;;;;;;;;;;;;;;;;5071348;28;19947;-83
2022/11/05 01:34:19;;;;;;;;;;;;;;;;;;5050657;28;20331;-80
2022/11/05 01:36:46;;;;;;;;;;;;;;;;;;5088556;28;19955;-79
2022/11/05 01:39:12;;;;;;;;;;;;;;;;;;5048607;28;19952;-80
2022/11/05 01:41:38;;;;;;;;;;;;;;;;;;5046778;28;19970;-80
2022/11/05 01:44:04;;;;;;;;;;;;;;;;;;5095853;28;19916;-81
2022/11/05 01:46:30;;;;;;;;;;;;;;;;;;5043654;28;21174;-79
2022/11/05 01:48:56;;;;;;;;;;;;;;;;;;5089019;28;19963;-80
2022/11/05 01:51:23;;;;;;;;;;;;;;;;;;5052976;28;19949;-80
2022/11/05 01:53:49;;;;;;;;;;;;;;;;;;5067094;28;19951;-80
2022/11/05 01:56:15;;;;;;;;;;;;;;;;;;5050896;28;20073;-81
2022/11/05 01:58:41;;;;;;;;;;;;;;;;;;5071464;28;19967;-81
2022/11/05 02:01:08;;;;;;;;;;;;;;;;;;5050756;28;19912;-81
2022/11/05 02:03:34;;;;;;;;;;;;;;;;;;5070922;28;19978;-81
2022/11/05 02:06:00;;;;;;;;;;;;;;;;;;5070201;28;19951;-81
2022/11/05 02:08:26;;;;;;;;;;;;;;;;;;5069281;28;19956;-82
2022/11/05 02:10:53;;;;;;;;;;;;;;;;;;5054917;28;19940;-82
2022/11/05 02:13:19;;;;;;;;;;;;;;;;;;5053128;28;19956;-82
2022/11/05 02:15:45;;;;;;;;;;;;;;;;;;5071163;28;19951;-81
2022/11/05 02:18:11;;;;;;;;;;;;;;;;;;5064980;28;19959;-81
2022/11/05 02:20:37;;;;;;;;;;;;;;;;;;5086020;28;20366;-81
2022/11/05 02:23:03;;;;;;;;;;;;;;;;;;5070147;28;19951;-82
2022/11/05 02:25:30;;;;;;;;;;;;;;;;;;5070057;28;19959;-82
2022/11/05 02:27:56;;;;;;;;;;;;;;;;;;5050839;28;20059;-82
2022/11/05 02:30:27;;;;;;;;;;;;;;;;;;5068011;28;19955;-80
2022/11/05 02:32:53;;;;;;;;;;;;;;;;;;5046580;28;20001;-79
2022/11/05 02:35:20;;;;;;;;;;;;;;;;;;5083688;28;19951;-80
2022/11/05 02:37:46;;;;;;;;;;;;;;;;;;5065946;28;19959;-81
2022/11/05 02:40:12;;;;;;;;;;;;;;;;;;5067370;28;19993;-81
2022/11/05 02:42:38;;;;;;;;;;;;;;;;;;5052588;28;19966;-81
2022/11/05 02:45:04;;;;;;;;;;;;;;;;;;5042016;28;19925;-80
2022/11/05 02:47:31;;;;;;;;;;;;;;;;;;5051455;28;23069;-81
2022/11/05 02:49:57;;;;;;;;;;;;;;;;;;5051483;28;19967;-81
2022/11/05 02:52:23;;;;;;;;;;;;;;;;;;5081420;28;19984;-82
2022/11/05 02:54:49;;;;;;;;;;;;;;;;;;5052967;28;19955;-82
2022/11/05 02:57:15;;;;;;;;;;;;;;;;;;5081556;28;20440;-81
2022/11/05 02:59:42;;;;;;;;;;;;;;;;;;5047540;28;19959;-82
2022/11/05 03:02:08;;;;;;;;;;;;;;;;;;5062987;28;19965;-81
2022/11/05 03:04:34;;;;;;;;;;;;;;;;;;5045156;28;19955;-81
2022/11/05 03:07:00;;;;;;;;;;;;;;;;;;5052800;28;19956;-81
2022/11/05 03:09:26;;;;;;;;;;;;;;;;;;5069102;28;19963;-81
2022/11/05 03:11:53;;;;;;;;;;;;;;;;;;5068955;28;19967;-81
2022/11/05 03:14:19;;;;;;;;;;;;;;;;;;5051460;28;20295;-81
2022/11/05 03:16:45;;;;;;;;;;;;;;;;;;5068268;28;19999;-83
2022/11/05 03:19:11;;;;;;;;;;;;;;;;;;5067126;28;19952;-83
2022/11/05 03:21:37;;;;;;;;;;;;;;;;;;5087309;28;19965;-83
2022/11/05 03:24:04;;;;;;;;;;;;;;;;;;5045646;28;19954;-83
2022/11/05 03:26:30;;;;;;;;;;;;;;;;;;5063216;28;19948;-84
2022/11/05 03:28:56;;;;;;;;;;;;;;;;;;5068579;28;19948;-83
2022/11/05 03:31:22;;;;;;;;;;;;;;;;;;5077280;28;19947;-83
2022/11/05 03:33:48;;;;;;;;;;;;;;;;;;5061284;28;20003;-83
2022/11/05 03:36:15;;;;;;;;;;;;;;;;;;5065854;28;19966;-82
2022/11/05 03:38:41;;;;;;;;;;;;;;;;;;5043565;28;19948;-82
2022/11/05 03:41:07;;;;;;;;;;;;;;;;;;5050379;28;20042;-82
2022/11/05 03:43:35;;;;;;;;;;;;;;;;;;5045789;28;19921;-83
2022/11/05 03:46:01;;;;;;;;;;;;;;;;;;5048066;28;20359;-82
2022/11/05 03:48:27;;;;;;;;;;;;;;;;;;5050291;28;20013;-82
2022/11/05 03:50:53;;;;;;;;;;;;;;;;;;5049695;28;19947;-82
2022/11/05 03:53:20;;;;;;;;;;;;;;;;;;5063741;28;19916;-82
2022/11/05 03:55:46;;;;;;;;;;;;;;;;;;5034111;28;19948;-82
2022/11/05 03:58:12;;;;;;;;;;;;;;;;;;5065623;28;19967;-82
2022/11/05 04:00:39;;;;;;;;;;;;;;;;;;5067492;28;19952;-82
2022/11/05 04:03:05;;;;;;;;;;;;;;;;;;5068240;28;20446;-82
2022/11/05 04:05:31;;;;;;;;;;;;;;;;;;5058782;28;19970;-82
2022/11/05 04:13:27;;;;;;;;;;;;;;;;;;5087152;28;19959;-89
2022/11/05 04:18:38;;;;;;;;;;;;;;;;;;5068770;28;20123;-83
2022/11/05 04:24:08;;;;;;;;;;;;;;;;;;5067167;28;20635;-85
2022/11/05 04:26:34;;;;;;;;;;;;;;;;;;5051671;28;19952;-85
2022/11/05 04:31:46;;;;;;;;;;;;;;;;;;5079503;28;20459;-84
2022/11/05 04:34:12;;;;;;;;;;;;;;;;;;5043584;28;19927;-82
2022/11/05 04:36:38;;;;;;;;;;;;;;;;;;5053382;28;19971;-82
2022/11/05 04:39:04;;;;;;;;;;;;;;;;;;5090770;28;19959;-81
2022/11/05 04:41:30;;;;;;;;;;;;;;;;;;5043350;28;19962;-82
2022/11/05 04:43:57;;;;;;;;;;;;;;;;;;5080379;28;19956;-82
2022/11/05 04:46:23;;;;;;;;;;;;;;;;;;5070490;28;19978;-82
2022/11/05 04:48:49;;;;;;;;;;;;;;;;;;5090588;28;19947;-84
2022/11/05 04:51:15;;;;;;;;;;;;;;;;;;5083928;28;20350;-84
2022/11/05 04:53:41;;;;;;;;;;;;;;;;;;5046728;28;19951;-88
2022/11/05 04:56:08;;;;;;;;;;;;;;;;;;5057773;28;19974;-80
2022/11/05 04:58:34;;;;;;;;;;;;;;;;;;5071344;28;20336;-82
2022/11/05 05:01:00;;;;;;;;;;;;;;;;;;5071566;28;19961;-81
2022/11/05 05:03:26;;;;;;;;;;;;;;;;;;5047934;28;19963;-81
2022/11/05 05:05:52;;;;;;;;;;;;;;;;;;5071959;28;19924;-82
2022/11/05 05:08:19;;;;;;;;;;;;;;;;;;5052781;28;19927;-82
2022/11/05 05:10:45;;;;;;;;;;;;;;;;;;5052434;28;19962;-83
2022/11/05 05:13:11;;;;;;;;;;;;;;;;;;5069792;28;19924;-82
2022/11/05 05:15:37;;;;;;;;;;;;;;;;;;5046440;28;19940;-82
2022/11/05 05:18:03;;;;;;;;;;;;;;;;;;5070791;28;19978;-82
2022/11/05 05:23:14;;;;;;;;;;;;;;;;;;5079577;28;19947;-82
2022/11/05 05:25:41;;;;;;;;;;;;;;;;;;5047251;28;19959;-82
2022/11/05 05:28:07;;;;;;;;;;;;;;;;;;5053858;28;20328;-82
2022/11/05 05:30:33;;;;;;;;;;;;;;;;;;5026939;28;19920;-82
2022/11/05 05:32:59;;;;;;;;;;;;;;;;;;5071643;28;20058;-83
2022/11/05 05:35:25;;;;;;;;;;;;;;;;;;5046438;28;20001;-83
2022/11/05 05:37:52;;;;;;;;;;;;;;;;;;5082902;28;20021;-83
2022/11/05 05:40:18;;;;;;;;;;;;;;;;;;5068786;28;19960;-82
2022/11/05 05:42:44;;;;;;;;;;;;;;;;;;5088807;28;19978;-82
2022/11/05 05:45:11;;;;;;;;;;;;;;;;;;5049322;28;19970;-81
2022/11/05 05:47:37;;;;;;;;;;;;;;;;;;5054281;28;20363;-82
2022/11/05 05:50:03;;;;;;;;;;;;;;;;;;5068560;28;19954;-83
2022/11/05 05:52:29;;;;;;;;;;;;;;;;;;5052994;28;20108;-82
2022/11/05 05:54:56;;;;;;;;;;;;;;;;;;5055103;28;20147;-82
2022/11/05 05:57:22;;;;;;;;;;;;;;;;;;5051906;28;19921;-80
2022/11/05 05:59:48;;;;;;;;;;;;;;;;;;5053583;28;19956;-81
2022/11/05 06:02:14;;;;;;;;;;;;;;;;;;5066903;28;19966;-81
2022/11/05 06:04:41;;;;;;;;;;;;;;;;;;5069909;28;19948;-82
2022/11/05 06:07:07;;;;;;;;;;;;;;;;;;5070401;28;19970;-81
2022/11/05 06:09:33;;;;;;;;;;;;;;;;;;5064873;28;19924;-82
2022/11/05 06:11:59;;;;;;;;;;;;;;;;;;5059593;28;19951;-83
2022/11/05 06:14:25;;;;;;;;;;;;;;;;;;5048339;28;19920;-82
2022/11/05 06:16:51;;;;;;;;;;;;;;;;;;5050917;28;19955;-83
2022/11/05 06:19:18;;;;;;;;;;;;;;;;;;5068109;28;19947;-84
2022/11/05 06:21:44;;;;;;;;;;;;;;;;;;5048084;28;20375;-85
2022/11/05 06:24:11;;;;;;;;;;;;;;;;;;5063462;28;19952;-84
2022/11/05 06:26:41;;;;;;;;;;;;;;;;;;5058657;28;19959;-84
2022/11/05 06:29:08;;;;;;;;;;;;;;;;;;5051020;28;20020;-83
2022/11/05 06:31:34;;;;;;;;;;;;;;;;;;5051514;28;19963;-83
2022/11/05 06:34:00;;;;;;;;;;;;;;;;;;5053476;28;19924;-84
2022/11/05 06:36:26;;;;;;;;;;;;;;;;;;5055428;28;20373;-83
2022/11/05 06:38:53;;;;;;;;;;;;;;;;;;5045495;28;19960;-83
2022/11/05 06:41:19;;;;;;;;;;;;;;;;;;5049677;28;19924;-83
2022/11/05 06:43:45;;;;;;;;;;;;;;;;;;5052200;28;19947;-84
2022/11/05 06:46:11;;;;;;;;;;;;;;;;;;5047730;28;19975;-83
2022/11/05 06:48:37;;;;;;;;;;;;;;;;;;5070437;28;19959;-83
2022/11/05 06:51:04;;;;;;;;;;;;;;;;;;5051582;28;20438;-83
2022/11/05 06:53:30;;;;;;;;;;;;;;;;;;5068171;28;19971;-83
2022/11/05 06:55:56;;;;;;;;;;;;;;;;;;5069838;28;19959;-84
2022/11/05 06:58:22;;;;;;;;;;;;;;;;;;5080237;28;19959;-84
2022/11/05 07:00:49;;;;;;;;;;;;;;;;;;5080525;28;19952;-84
2022/11/05 07:03:15;;;;;;;;;;;;;;;;;;5067549;28;20445;-84
2022/11/05 07:05:41;;;;;;;;;;;;;;;;;;5052219;28;19966;-84
2022/11/05 07:08:07;;;;;;;;;;;;;;;;;;5063960;28;19944;-84
2022/11/05 07:10:33;;;;;;;;;;;;;;;;;;5048690;28;19920;-84
2022/11/05 07:13:00;;;;;;;;;;;;;;;;;;5048083;28;20429;-84
2022/11/05 07:15:26;;;;;;;;;;;;;;;;;;5048321;28;19963;-84
2022/11/05 07:17:52;;;;;;;;;;;;;;;;;;5066705;28;19999;-86
2022/11/05 07:20:18;;;;;;;;;;;;;;;;;;5067688;28;19927;-86
2022/11/05 07:22:44;;;;;;;;;;;;;;;;;;5050155;28;20387;-83
2022/11/05 07:25:10;;;;;;;;;;;;;;;;;;5048404;28;19966;-84
2022/11/05 07:27:37;;;;;;;;;;;;;;;;;;5063918;28;20367;-83
2022/11/05 07:30:04;;;;;;;;;;;;;;;;;;5069595;28;20335;-83
2022/11/05 07:32:30;;;;;;;;;;;;;;;;;;5068736;28;19951;-83
2022/11/05 07:34:56;;;;;;;;;;;;;;;;;;5069678;28;19978;-82
2022/11/05 07:37:23;;;;;;;;;;;;;;;;;;5069267;28;19966;-83
2022/11/05 07:39:49;;;;;;;;;;;;;;;;;;5051045;28;19956;-82
2022/11/05 07:42:15;;;;;;;;;;;;;;;;;;5052047;28;19959;-83
2022/11/05 07:44:42;;;;;;;;;;;;;;;;;;5090646;28;20366;-83
2022/11/05 07:47:08;;;;;;;;;;;;;;;;;;5050474;28;19924;-82
2022/11/05 07:49:34;;;;;;;;;;;;;;;;;;5050513;28;19916;-83
2022/11/05 07:52:00;;;;;;;;;;;;;;;;;;5068513;28;19962;-81
2022/11/05 07:54:26;;;;;;;;;;;;;;;;;;5053481;28;19974;-83
2022/11/05 07:56:53;;;;;;;;;;;;;;;;;;5086896;28;19924;-83
2022/11/05 07:59:19;;;;;;;;;;;;;;;;;;5046827;28;20406;-82
2022/11/05 08:01:45;;;;;;;;;;;;;;;;;;5049547;28;19916;-82
2022/11/05 08:04:11;;;;;;;;;;;;;;;;;;5047305;28;20085;-83
2022/11/05 08:06:38;;;;;;;;;;;;;;;;;;5061719;28;19968;-82
2022/11/05 08:09:04;;;;;;;;;;;;;;;;;;5039419;28;20406;-83
2022/11/05 08:11:31;;;;;;;;;;;;;;;;;;5043738;28;19920;-84
2022/11/05 08:13:58;;;;;;;;;;;;;;;;;;5063838;28;19960;-85
2022/11/05 08:16:25;;;;;;;;;;;;;;;;;;5055119;28;19963;-82
2022/11/05 08:18:51;;;;;;;;;;;;;;;;;;5063762;28;19963;-78
2022/11/05 08:21:18;;;;;;;;;;;;;;;;;;5066217;28;20714;-82
2022/11/05 08:23:44;;;;;;;;;;;;;;;;;;5041939;28;19966;-82
2022/11/05 08:26:10;;;;;;;;;;;;;;;;;;5045363;28;20049;-82
2022/11/05 08:28:36;;;;;;;;;;;;;;;;;;5057336;28;20386;-82
2022/11/05 08:31:02;;;;;;;;;;;;;;;;;;5064340;28;19944;-82
2022/11/05 08:33:30;;;;;;;;;;;;;;;;;;5064592;28;20348;-83
2022/11/05 08:35:56;;;;;;;;;;;;;;;;;;5066742;28;19963;-82
2022/11/05 08:38:22;;;;;;;;;;;;;;;;;;5060532;28;19991;-83
2022/11/05 08:40:48;;;;;;;;;;;;;;;;;;5064471;28;19959;-81
2022/11/05 08:43:15;;;;;;;;;;;;;;;;;;5067138;28;19946;-81
2022/11/05 08:45:41;;;;;;;;;;;;;;;;;;5044911;28;20368;-84
2022/11/05 08:48:07;;;;;;;;;;;;;;;;;;5047934;28;20017;-83
2022/11/05 08:50:33;;;;;;;;;;;;;;;;;;5059065;28;19998;-85
2022/11/05 08:53:00;;;;;;;;;;;;;;;;;;5038809;28;19962;-85
2022/11/05 08:55:26;;;;;;;;;;;;;;;;;;5063351;28;19943;-84
2022/11/05 08:57:52;;;;;;;;;;;;;;;;;;5045345;28;19951;-84
2022/11/05 09:00:18;;;;;;;;;;;;;;;;;;5058812;28;20026;-84
2022/11/05 09:02:45;;;;;;;;;;;;;;;;;;5048879;28;20287;-79
2022/11/05 09:05:11;;;;;;;;;;;;;;;;;;5047376;28;19955;-82
2022/11/05 09:07:37;;;;;;;;;;;;;;;;;;5050685;28;19952;-85
2022/11/05 09:10:06;;;;;;;;;;;;;;;;;;5062471;28;19920;-83
2022/11/05 09:12:32;;;;;;;;;;;;;;;;;;5070123;28;19959;-86
2022/11/05 09:14:58;;;;;;;;;;;;;;;;;;5052201;28;19920;-84
2022/11/05 09:17:24;;;;;;;;;;;;;;;;;;5053243;28;19952;-83
2022/11/05 09:19:51;;;;;;;;;;;;;;;;;;5046570;28;19970;-83
2022/11/05 09:22:17;;;;;;;;;;;;;;;;;;5049669;28;19920;-84
2022/11/05 09:24:43;;;;;;;;;;;;;;;;;;5085108;28;19960;-84
2022/11/05 09:27:10;;;;;;;;;;;;;;;;;;5063911;28;19959;-83
2022/11/05 09:29:36;;;;;;;;;;;;;;;;;;5066924;28;19951;-87
2022/11/05 09:32:03;;;;;;;;;;;;;;;;;;5051132;28;19951;-80
2022/11/05 09:34:29;;;;;;;;;;;;;;;;;;5049793;28;20391;-80
2022/11/05 09:36:55;;;;;;;;;;;;;;;;;;5050166;28;20350;-85
2022/11/05 09:39:22;;;;;;;;;;;;;;;;;;5086062;28;19959;-83
2022/11/05 09:41:48;;;;;;;;;;;;;;;;;;5071042;28;20353;-82
2022/11/05 09:44:14;;;;;;;;;;;;;;;;;;5050014;28;20009;-79
2022/11/05 09:46:40;;;;;;;;;;;;;;;;;;5059966;28;19927;-79
2022/11/05 09:49:07;;;;;;;;;;;;;;;;;;5049136;28;19947;-80
2022/11/05 09:51:34;;;;;;;;;;;;;;;;;;5087265;28;19966;-80
2022/11/05 09:54:01;;;;;;;;;;;;;;;;;;5068880;28;19942;-80
2022/11/05 09:56:27;;;;;;;;;;;;;;;;;;5067790;28;19951;-79
2022/11/05 09:58:53;;;;;;;;;;;;;;;;;;5048839;28;19947;-79
2022/11/05 10:01:19;;;;;;;;;;;;;;;;;;5066631;28;19912;-79
2022/11/05 10:03:46;;;;;;;;;;;;;;;;;;5068749;28;19923;-79
2022/11/05 10:06:12;;;;;;;;;;;;;;;;;;5085947;28;19956;-80
2022/11/05 10:08:38;;;;;;;;;;;;;;;;;;5063659;28;20446;-79
2022/11/05 10:11:04;;;;;;;;;;;;;;;;;;5068265;28;19958;-80
2022/11/05 10:13:30;;;;;;;;;;;;;;;;;;5085112;28;19947;-80
2022/11/05 10:15:57;;;;;;;;;;;;;;;;;;5047639;28;19948;-79
2022/11/05 10:18:23;;;;;;;;;;;;;;;;;;5065523;28;19920;-80
2022/11/05 10:20:49;;;;;;;;;;;;;;;;;;5068660;28;19920;-79
2022/11/05 10:23:15;;;;;;;;;;;;;;;;;;5068601;28;19956;-79
2022/11/05 10:25:41;;;;;;;;;;;;;;;;;;5070368;28;19973;-79
2022/11/05 10:28:08;;;;;;;;;;;;;;;;;;5084948;28;19962;-79
2022/11/05 10:30:34;;;;;;;;;;;;;;;;;;5086183;28;19966;-79
2022/11/05 10:33:00;;;;;;;;;;;;;;;;;;5069317;28;19924;-79
2022/11/05 10:35:26;;;;;;;;;;;;;;;;;;5085712;28;19954;-79
2022/11/05 10:37:52;;;;;;;;;;;;;;;;;;5088043;28;20471;-79
2022/11/05 10:40:19;;;;;;;;;;;;;;;;;;5087255;28;20011;-79
2022/11/05 10:42:45;;;;;;;;;;;;;;;;;;5056726;28;19974;-80
2022/11/05 10:45:11;;;;;;;;;;;;;;;;;;5043728;28;19956;-79
2022/11/05 10:47:37;;;;;;;;;;;;;;;;;;5048954;28;20035;-79
2022/11/05 10:50:03;;;;;;;;;;;;;;;;;;5051241;28;19974;-79
2022/11/05 10:52:29;;;;;;;;;;;;;;;;;;5082833;28;19990;-79
2022/11/05 10:54:56;;;;;;;;;;;;;;;;;;5069766;28;19955;-79
2022/11/05 10:57:22;;;;;;;;;;;;;;;;;;5049378;28;19916;-79
2022/11/05 10:59:48;;;;;;;;;;;;;;;;;;5064888;28;19955;-79
2022/11/05 11:02:14;;;;;;;;;;;;;;;;;;5042000;28;19964;-79
2022/11/05 11:04:40;;;;;;;;;;;;;;;;;;5052790;28;19967;-79
2022/11/05 11:07:07;;;;;;;;;;;;;;;;;;5053136;28;20369;-79
2022/11/05 11:09:33;;;;;;;;;;;;;;;;;;5086710;28;19944;-79
2022/11/05 11:11:59;;;;;;;;;;;;;;;;;;5049718;28;19959;-79
2022/11/05 11:14:26;;;;;;;;;;;;;;;;;;5067048;28;19966;-79
2022/11/05 11:16:56;;;;;;;;;;;;;;;;;;5087086;28;19955;-79
2022/11/05 11:19:22;;;;;;;;;;;;;;;;;;5066633;28;19916;-79
2022/11/05 11:21:48;;;;;;;;;;;;;;;;;;5052275;28;19971;-79
2022/11/05 11:24:14;;;;;;;;;;;;;;;;;;5067850;28;20461;-79
2022/11/05 11:26:40;;;;;;;;;;;;;;;;;;5069588;28;20038;-79
2022/11/05 11:29:07;;;;;;;;;;;;;;;;;;5068798;28;19981;-79
2022/11/05 11:31:33;;;;;;;;;;;;;;;;;;5067746;28;19916;-79
2022/11/05 11:33:59;;;;;;;;;;;;;;;;;;5064889;28;19959;-79
2022/11/05 11:36:25;;;;;;;;;;;;;;;;;;5067725;28;20364;-79
2022/11/05 11:38:51;;;;;;;;;;;;;;;;;;5038367;28;19962;-79
2022/11/05 11:41:18;;;;;;;;;;;;;;;;;;5083433;28;19971;-79
2022/11/05 11:43:44;;;;;;;;;;;;;;;;;;5051079;28;19947;-79
2022/11/05 11:46:10;;;;;;;;;;;;;;;;;;5067750;28;19955;-79
2022/11/05 11:48:36;;;;;;;;;;;;;;;;;;5065514;28;20741;-79
2022/11/05 11:51:02;;;;;;;;;;;;;;;;;;5068920;28;20406;-78
2022/11/05 11:53:29;;;;;;;;;;;;;;;;;;5085534;28;19963;-79
2022/11/05 11:55:55;;;;;;;;;;;;;;;;;;5038927;28;19959;-79
2022/11/05 11:58:21;;;;;;;;;;;;;;;;;;5083457;28;19916;-79
2022/11/05 12:00:48;;;;;;;;;;;;;;;;;;5087180;28;19989;-79
2022/11/05 12:03:15;;;;;;;;;;;;;;;;;;5049724;28;20026;-78
2022/11/05 12:05:41;;;;;;;;;;;;;;;;;;5068563;28;20397;-78
2022/11/05 12:08:07;;;;;;;;;;;;;;;;;;5066080;28;19920;-78
2022/11/05 12:10:33;;;;;;;;;;;;;;;;;;5047277;28;19969;-79
2022/11/05 12:12:59;;;;;;;;;;;;;;;;;;5062114;28;19967;-79
2022/11/05 12:15:26;;;;;;;;;;;;;;;;;;5062948;28;20383;-79
2022/11/05 12:17:52;;;;;;;;;;;;;;;;;;5085876;28;19959;-79
2022/11/05 12:20:18;;;;;;;;;;;;;;;;;;5085903;28;19975;-79
2022/11/05 12:22:44;;;;;;;;;;;;;;;;;;5088001;28;19955;-79
2022/11/05 12:25:10;;;;;;;;;;;;;;;;;;5064588;28;19947;-79
2022/11/05 12:27:36;;;;;;;;;;;;;;;;;;5067881;28;19948;-79
2022/11/05 12:30:03;;;;;;;;;;;;;;;;;;5051303;28;19955;-79
2022/11/05 12:32:29;;;;;;;;;;;;;;;;;;5084579;28;19966;-80
2022/11/05 12:34:55;;;;;;;;;;;;;;;;;;5065401;28;19995;-79
2022/11/05 12:37:21;;;;;;;;;;;;;;;;;;5079638;28;19959;-80
2022/11/05 12:39:47;;;;;;;;;;;;;;;;;;5067191;28;20343;-78
2022/11/05 12:42:14;;;;;;;;;;;;;;;;;;5078446;28;19950;-79
2022/11/05 12:44:40;;;;;;;;;;;;;;;;;;5063052;28;19963;-79
2022/11/05 12:47:06;;;;;;;;;;;;;;;;;;5065967;28;19967;-79
2022/11/05 12:49:32;;;;;;;;;;;;;;;;;;5067291;28;19952;-79
2022/11/05 12:51:59;;;;;;;;;;;;;;;;;;5067691;28;20299;-79
2022/11/05 12:54:25;;;;;;;;;;;;;;;;;;5070027;28;20047;-79
2022/11/05 12:56:51;;;;;;;;;;;;;;;;;;5089378;28;19966;-79
2022/11/05 12:59:17;;;;;;;;;;;;;;;;;;5060484;28;19950;-79
2022/11/05 13:01:49;;;;;;;;;;;;;;;;;;5071619;28;19959;-79
2022/11/05 13:04:18;;;;;;;;;;;;;;;;;;5069135;28;19926;-78
2022/11/05 13:06:45;;;;;;;;;;;;;;;;;;5083074;28;20462;-79
2022/11/05 13:09:11;;;;;;;;;;;;;;;;;;5074013;28;19952;-80
2022/11/05 13:11:43;;;;;;;;;;;;;;;;;;5068249;28;20529;-78
2022/11/05 13:14:10;;;;;;;;;;;;;;;;;;5069173;28;19955;-79
2022/11/05 13:16:57;;;;;;;;;;;;;;;;;;5073927;28;19916;-80
2022/11/05 13:19:23;;;;;;;;;;;;;;;;;;5084909;28;19915;-80
2022/11/05 13:21:50;;;;;;;;;;;;;;;;;;5070782;28;19940;-78
2022/11/05 13:24:16;;;;;;;;;;;;;;;;;;5082472;28;19951;-79
2022/11/05 13:26:42;;;;;;;;;;;;;;;;;;5068476;28;19934;-78
2022/11/05 13:29:08;;;;;;;;;;;;;;;;;;5069451;28;19974;-77
2022/11/05 13:31:34;;;;;;;;;;;;;;;;;;5087527;28;19916;-78
2022/11/05 13:34:01;;;;;;;;;;;;;;;;;;5067506;28;19952;-82
2022/11/05 13:39:11;;;;;;;;;;;;;;;;;;5067167;28;19952;-79
2022/11/05 13:41:38;;;;;;;;;;;;;;;;;;5083983;28;19959;-79
2022/11/05 13:44:04;;;;;;;;;;;;;;;;;;5063207;28;19952;-79
2022/11/05 13:46:30;;;;;;;;;;;;;;;;;;5067722;28;19928;-78
2022/11/05 13:48:56;;;;;;;;;;;;;;;;;;5068464;28;19974;-78
2022/11/05 13:51:22;;;;;;;;;;;;;;;;;;5070564;28;19912;-79
2022/11/05 13:53:49;;;;;;;;;;;;;;;;;;5066178;28;19950;-79
2022/11/05 13:56:15;;;;;;;;;;;;;;;;;;5063841;28;19959;-79
2022/11/05 13:58:41;;;;;;;;;;;;;;;;;;5083070;28;19970;-81
2022/11/05 14:01:07;;;;;;;;;;;;;;;;;;5084374;28;19959;-80
2022/11/05 14:03:34;;;;;;;;;;;;;;;;;;5063886;28;19974;-81
2022/11/05 14:06:00;;;;;;;;;;;;;;;;;;5073771;28;19967;-80
2022/11/05 14:08:26;;;;;;;;;;;;;;;;;;5070759;28;19952;-82
2022/11/05 14:10:52;;;;;;;;;;;;;;;;;;5071709;28;20383;-83
2022/11/05 14:13:18;;;;;;;;;;;;;;;;;;5067543;28;19967;-81
2022/11/05 14:15:45;;;;;;;;;;;;;;;;;;5069791;28;19923;-81
2022/11/05 14:18:11;;;;;;;;;;;;;;;;;;5063679;28;19920;-82
2022/11/05 14:20:37;;;;;;;;;;;;;;;;;;5054617;28;20014;-81
2022/11/05 14:23:04;;;;;;;;;;;;;;;;;;5069114;28;19920;-82
2022/11/05 14:25:30;;;;;;;;;;;;;;;;;;5043716;28;20370;-82
2022/11/05 14:27:59;;;;;;;;;;;;;;;;;;5060657;28;19920;-82
2022/11/05 14:30:25;;;;;;;;;;;;;;;;;;5085004;28;20053;-82
2022/11/05 14:32:54;;;;;;;;;;;;;;;;;;5064760;28;19952;-82
2022/11/05 14:35:20;;;;;;;;;;;;;;;;;;5066711;28;20353;-83
2022/11/05 14:37:46;;;;;;;;;;;;;;;;;;5088560;28;19959;-82
2022/11/05 14:40:12;;;;;;;;;;;;;;;;;;5057858;28;19959;-84
2022/11/05 14:42:39;;;;;;;;;;;;;;;;;;5042269;28;19920;-84
2022/11/05 14:45:05;;;;;;;;;;;;;;;;;;5048523;28;19920;-83
2022/11/05 14:47:31;;;;;;;;;;;;;;;;;;5058410;28;20359;-83
2022/11/05 14:49:57;;;;;;;;;;;;;;;;;;5066201;28;19967;-83
2022/11/05 14:52:23;;;;;;;;;;;;;;;;;;5050718;28;20425;-83
2022/11/05 14:54:50;;;;;;;;;;;;;;;;;;5065416;28;19971;-83
2022/11/05 14:57:16;;;;;;;;;;;;;;;;;;5057553;28;20504;-83
2022/11/05 14:59:42;;;;;;;;;;;;;;;;;;5065524;28;19948;-83
2022/11/05 15:02:08;;;;;;;;;;;;;;;;;;5066204;28;20068;-82
2022/11/05 15:04:35;;;;;;;;;;;;;;;;;;5064859;28;19951;-82
2022/11/05 15:07:01;;;;;;;;;;;;;;;;;;5045639;28;19920;-83
2022/11/05 15:09:27;;;;;;;;;;;;;;;;;;5066509;28;19955;-82
2022/11/05 15:11:53;;;;;;;;;;;;;;;;;;5055816;28;20398;-82
2022/11/05 15:14:20;;;;;;;;;;;;;;;;;;5062545;28;19928;-81
2022/11/05 15:16:46;;;;;;;;;;;;;;;;;;5068175;28;19967;-81
2022/11/05 15:19:12;;;;;;;;;;;;;;;;;;5066806;28;19959;-82
2022/11/05 15:21:40;;;;;;;;;;;;;;;;;;5085732;28;19963;-81
2022/11/05 15:24:06;;;;;;;;;;;;;;;;;;5067542;28;19947;-81
2022/11/05 15:26:32;;;;;;;;;;;;;;;;;;5047303;28;20241;-81
2022/11/05 15:28:58;;;;;;;;;;;;;;;;;;5068702;28;19956;-81
2022/11/05 15:31:25;;;;;;;;;;;;;;;;;;5052716;28;19951;-81
2022/11/05 15:33:51;;;;;;;;;;;;;;;;;;5051445;28;19916;-82
2022/11/05 15:36:17;;;;;;;;;;;;;;;;;;5066650;28;19951;-82
2022/11/05 15:38:44;;;;;;;;;;;;;;;;;;5050805;28;19948;-82
2022/11/05 15:41:10;;;;;;;;;;;;;;;;;;5052050;28;19994;-83
2022/11/05 15:43:39;;;;;;;;;;;;;;;;;;5050905;28;24056;-81
2022/11/05 15:46:05;;;;;;;;;;;;;;;;;;5068009;28;19947;-83
2022/11/05 15:48:31;;;;;;;;;;;;;;;;;;5042921;28;20016;-83
2022/11/05 15:50:57;;;;;;;;;;;;;;;;;;5046193;28;20346;-83
2022/11/05 15:53:24;;;;;;;;;;;;;;;;;;5064170;28;19942;-83
2022/11/05 15:55:50;;;;;;;;;;;;;;;;;;5046383;28;19920;-83
2022/11/05 15:58:16;;;;;;;;;;;;;;;;;;5066367;28;19979;-84
2022/11/05 16:00:42;;;;;;;;;;;;;;;;;;5043769;28;20047;-84
2022/11/05 16:03:08;;;;;;;;;;;;;;;;;;5040585;28;20509;-83
2022/11/05 16:05:35;;;;;;;;;;;;;;;;;;5048029;28;20023;-83
2022/11/05 16:08:03;;;;;;;;;;;;;;;;;;5060147;28;19975;-84
2022/11/05 16:10:29;;;;;;;;;;;;;;;;;;5060473;28;20521;-83
2022/11/05 16:12:55;;;;;;;;;;;;;;;;;;5055291;28;19977;-76
2022/11/05 16:15:21;;;;;;;;;;;;;;;;;;5023222;28;19979;-73
